Terminal Aerodrome Forecast
Issued by NWS Spokane, WA

Home | Current Version | Previous Version | Text Only | Print | Product List | Glossary On
Versions: 1 2 3 4 5 6 7 8 9 10 11 12 13 14 15 16 17 18 19 20 21 22 23 24 25 26 27
000
FTUS46 KOTX 281733
TAFEAT
TAF
KEAT 281733Z 2818/2918 32011KT P6SM VCSH FEW110 BKN130 OVC200
     FM282100 20009KT P6SM SCT110 BKN140
     FM290300 33007KT P6SM SCT100 BKN120 OVC200
     FM291600 31007KT P6SM -SHRA BKN100 OVC150=

USA.gov is the U.S. government's official web portal to all federal, state and local government web resources and services.